Time;durP1;ratioP1;P1;durP2;ratioP2;P2;SDS_P1;SDS_P2;PMS_P1;PMS_P2;Temp;Humidity;BMP_temperature;BMP_pressure;BME280_temperature;BME280_humidity;BME280_pressure;Samples;Min_cycle;Max_cycle;Signal;HPM_P1;HPM_P2
2021/07/16 00:00:43;;;;;;;13.60;9.80;;;;;;;20.97;79.13;100166.64;93252;1206;86457;-67
2021/07/16 00:02:56;;;;;;;11.60;8.90;;;;;;;20.96;79.38;100165.81;93267;1206;74503;-66
2021/07/16 00:05:04;;;;;;;12.00;10.20;;;;;;;20.90;79.37;100160.56;93265;1203;81815;-67
2021/07/16 00:07:12;;;;;;;11.60;9.70;;;;;;;20.85;79.30;100168.77;93246;1206;68482;-67
2021/07/16 00:09:20;;;;;;;11.60;9.60;;;;;;;20.85;79.24;100168.77;93267;1206;69041;-69
2021/07/16 00:11:29;;;;;;;14.30;9.60;;;;;;;20.79;79.36;100167.06;93258;1205;87007;-66
2021/07/16 00:13:37;;;;;;;14.70;10.70;;;;;;;20.80;79.25;100176.94;93228;1205;74797;-67
2021/07/16 00:15:45;;;;;;;13.90;10.90;;;;;;;20.80;79.36;100175.02;93193;1208;81589;-67
2021/07/16 00:17:56;;;;;;;15.60;11.30;;;;;;;20.84;79.50;100183.57;93279;1205;67990;-67
2021/07/16 00:20:05;;;;;;;16.80;10.80;;;;;;;20.91;79.46;100185.00;93208;1209;70081;-68
2021/07/16 00:22:13;;;;;;;14.10;11.50;;;;;;;20.89;79.57;100184.44;93235;1205;85525;-67
2021/07/16 00:24:21;;;;;;;13.20;10.40;;;;;;;20.89;79.57;100186.35;93260;1210;74887;-67
2021/07/16 00:26:28;;;;;;;14.10;9.80;;;;;;;20.91;79.51;100181.42;93241;1205;80788;-67
2021/07/16 00:28:36;;;;;;;12.40;10.10;;;;;;;20.93;79.52;100190.25;93237;1213;68993;-67
2021/07/16 00:30:44;;;;;;;14.90;9.40;;;;;;;20.89;79.68;100197.34;93281;1206;68899;-67
2021/07/16 00:32:52;;;;;;;16.10;10.00;;;;;;;20.90;79.81;100207.25;93163;1209;85754;-67
2021/07/16 00:34:59;;;;;;;12.70;10.00;;;;;;;20.91;79.82;100219.87;93269;1204;75542;-67
2021/07/16 00:37:08;;;;;;;15.60;10.30;;;;;;;20.97;79.79;100222.41;93266;1211;81542;-67
2021/07/16 00:39:16;;;;;;;14.10;11.10;;;;;;;21.01;79.77;100241.95;93269;1210;66092;-66
2021/07/16 00:41:24;;;;;;;17.20;10.30;;;;;;;21.07;79.85;100239.00;93267;1205;68505;-66
2021/07/16 00:43:34;;;;;;;14.40;10.00;;;;;;;21.10;79.82;100254.13;93277;1207;87311;-66
2021/07/16 00:45:42;;;;;;;12.50;10.00;;;;;;;21.08;80.06;100259.90;93276;1206;74171;-66
2021/07/16 00:47:50;;;;;;;15.20;10.80;;;;;;;21.11;80.33;100259.38;93271;1211;81343;-66
2021/07/16 00:49:58;;;;;;;14.40;12.00;;;;;;;21.20;80.19;100254.23;93215;1208;65739;-66
2021/07/16 00:52:08;;;;;;;17.40;11.80;;;;;;;21.26;80.10;100247.66;93272;1205;69599;-66
2021/07/16 00:54:15;;;;;;;16.80;12.50;;;;;;;21.29;80.07;100241.64;93312;1205;85398;-68
2021/07/16 00:56:23;;;;;;;14.00;11.80;;;;;;;21.31;80.07;100242.23;93221;1205;75385;-68
2021/07/16 00:58:31;;;;;;;14.90;11.10;;;;;;;21.36;79.96;100246.92;93177;1208;80162;-65
2021/07/16 01:00:39;;;;;;;14.30;10.80;;;;;;;21.37;79.98;100263.14;93283;1205;68311;-66
2021/07/16 01:02:47;;;;;;;15.30;11.60;;;;;;;21.40;79.92;100257.13;93256;1205;68070;-66
2021/07/16 01:04:55;;;;;;;16.70;11.40;;;;;;;21.44;79.89;100255.52;93275;1206;86621;-67
2021/07/16 01:07:05;;;;;;;16.70;11.00;;;;;;;21.47;79.98;100260.48;93218;1213;75375;-67
2021/07/16 01:09:12;;;;;;;15.60;11.30;;;;;;;21.47;79.78;100252.24;93261;1205;80778;-67
2021/07/16 01:11:20;;;;;;;17.60;10.50;;;;;;;21.49;79.87;100252.80;93242;1205;67187;-68
2021/07/16 01:13:32;;;;;;;15.10;11.00;;;;;;;21.47;79.83;100238.50;93264;1206;68709;-68
2021/07/16 01:15:40;;;;;;;15.80;11.60;;;;;;;21.45;79.82;100248.91;93262;1206;86382;-68
2021/07/16 01:17:48;;;;;;;16.00;11.60;;;;;;;21.40;79.73;100257.13;93250;1206;74247;-67
2021/07/16 01:20:04;;;;;;;16.30;11.50;;;;;;;21.40;79.79;100253.56;93239;1206;81662;-66
2021/07/16 01:22:15;;;;;;;13.90;11.00;;;;;;;21.38;79.78;100259.31;93248;1206;68447;-66
2021/07/16 01:24:23;;;;;;;14.00;10.90;;;;;;;21.39;79.91;100268.39;93248;1206;68299;-67
2021/07/16 01:26:35;;;;;;;16.60;12.20;;;;;;;21.35;79.85;100259.83;93253;1206;85810;-67
2021/07/16 01:28:43;;;;;;;14.90;11.30;;;;;;;21.38;80.03;100262.06;93260;1210;74493;-66
2021/07/16 01:30:53;;;;;;;18.80;11.70;;;;;;;21.39;79.98;100285.72;93209;1208;82203;-66
2021/07/16 01:33:02;;;;;;;13.80;11.10;;;;;;;21.39;80.16;100295.88;93234;1209;69161;-67
2021/07/16 01:35:12;;;;;;;18.00;11.50;;;;;;;21.43;80.18;100289.58;93274;1205;68537;-67
2021/07/16 01:37:23;;;;;;;15.10;11.80;;;;;;;21.48;80.21;100277.81;93242;1205;87371;-67
2021/07/16 01:39:31;;;;;;;17.90;13.00;;;;;;;21.47;80.16;100265.15;93264;1206;74951;-66
2021/07/16 01:41:39;;;;;;;17.10;13.40;;;;;;;21.50;80.10;100257.21;93239;1213;80496;-66
2021/07/16 01:43:50;;;;;;;16.30;11.90;;;;;;;21.51;80.09;100266.27;93278;1206;66898;-66
2021/07/16 01:45:57;;;;;;;16.60;13.00;;;;;;;21.52;80.04;100267.94;93143;1208;68321;-66
2021/07/16 01:48:12;;;;;;;16.50;12.60;;;;;;;21.51;79.98;100272.59;93274;1210;86761;-67
2021/07/16 01:50:20;;;;;;;15.40;12.00;;;;;;;21.48;80.08;100267.63;93284;1206;74426;-67
2021/07/16 01:52:28;;;;;;;16.40;12.90;;;;;;;21.50;80.04;100264.63;93252;1210;80923;-67
2021/07/16 01:54:36;;;;;;;17.30;12.70;;;;;;;21.52;80.08;100262.44;93246;1205;65321;-66
2021/07/16 01:56:43;;;;;;;17.40;12.30;;;;;;;21.48;80.12;100275.87;93276;1210;68320;-65
2021/07/16 01:58:54;;;;;;;17.70;12.20;;;;;;;21.50;80.13;100273.70;93275;1206;87029;-67
2021/07/16 02:01:01;;;;;;;18.70;12.90;;;;;;;21.52;80.07;100271.52;93305;1205;75487;-67
2021/07/16 02:03:12;;;;;;;14.40;12.60;;;;;;;21.52;80.19;100277.02;93258;1205;82722;-66
2021/07/16 02:05:23;;;;;;;18.80;12.60;;;;;;;21.55;80.16;100276.48;93261;1206;65266;-66
2021/07/16 02:07:31;;;;;;;16.10;12.00;;;;;;;21.61;80.06;100278.19;93285;1208;68718;-66
2021/07/16 02:09:38;;;;;;;15.20;11.40;;;;;;;21.62;80.07;100276.23;93242;1205;87472;-67
2021/07/16 02:11:49;;;;;;;21.40;12.80;;;;;;;21.65;79.98;100293.05;93266;1207;73992;-68
2021/07/16 02:13:57;;;;;;;18.10;13.00;;;;;;;21.67;80.08;100293.60;93267;1206;81764;-67
2021/07/16 02:16:05;;;;;;;17.30;13.50;;;;;;;21.69;80.16;100296.94;93256;1206;65886;-68
2021/07/16 02:18:14;;;;;;;16.40;12.20;;;;;;;21.69;80.24;100296.94;93304;1204;69859;-67
2021/07/16 02:20:28;;;;;;;19.20;12.40;;;;;;;21.70;80.21;100290.33;93276;1206;86970;-67
2021/07/16 02:22:36;;;;;;;16.50;12.20;;;;;;;21.70;80.23;100282.08;93252;1206;75385;-67
2021/07/16 02:24:44;;;;;;;19.60;12.20;;;;;;;21.73;80.30;100280.72;93247;1206;82240;-67
2021/07/16 02:26:51;;;;;;;20.00;13.60;;;;;;;21.73;80.48;100276.05;93255;1198;66996;-66
2021/07/16 02:28:59;;;;;;;21.00;13.00;;;;;;;21.72;80.52;100257.08;93301;1206;69169;-66
2021/07/16 02:31:11;;;;;;;15.10;12.40;;;;;;;21.72;80.34;100238.66;93262;1210;87542;-67
2021/07/16 02:33:23;;;;;;;15.00;12.00;;;;;;;21.74;80.51;100235.63;93236;1206;74302;-69
2021/07/16 02:35:32;;;;;;;18.60;12.70;;;;;;;21.75;80.73;100240.85;93269;1199;82587;-69
2021/07/16 02:37:41;;;;;;;17.10;12.50;;;;;;;21.81;80.79;100244.46;93251;1205;68534;-66
2021/07/16 02:39:49;;;;;;;14.60;13.00;;;;;;;21.85;80.75;100253.02;93302;1205;67734;-66
2021/07/16 02:41:56;;;;;;;17.40;12.30;;;;;;;21.85;80.75;100261.27;93278;1213;86347;-66
2021/07/16 02:44:08;;;;;;;17.40;12.90;;;;;;;21.88;80.68;100258.85;93254;1206;75403;-65
2021/07/16 02:46:15;;;;;;;16.60;12.40;;;;;;;21.86;80.94;100277.52;93161;1209;81367;-65
2021/07/16 02:48:23;;;;;;;18.20;12.20;;;;;;;21.88;80.79;100285.52;93260;1206;68309;-65
2021/07/16 02:50:34;;;;;;;16.00;11.90;;;;;;;21.91;81.00;100276.74;93286;1206;69467;-65
2021/07/16 02:52:42;;;;;;;15.90;11.80;;;;;;;21.90;81.05;100267.66;93216;1208;87823;-67
2021/07/16 02:54:50;;;;;;;15.40;12.70;;;;;;;21.94;80.84;100287.22;93281;1205;74233;-67
2021/07/16 02:57:02;;;;;;;16.40;11.70;;;;;;;21.99;80.78;100298.24;93258;1204;81107;-68
2021/07/16 02:59:10;;;;;;;15.90;11.20;;;;;;;22.01;80.71;100287.80;93266;1206;68382;-66
2021/07/16 03:01:18;;;;;;;14.10;11.40;;;;;;;21.95;80.80;100277.88;93206;1208;69935;-65
2021/07/16 03:03:26;;;;;;;14.30;10.90;;;;;;;22.02;80.85;100278.45;93278;1204;87706;-65
2021/07/16 03:05:38;;;;;;;13.90;11.40;;;;;;;22.03;80.80;100263.61;93264;1206;75422;-65
2021/07/16 03:07:50;;;;;;;13.20;10.80;;;;;;;22.05;80.60;100259.50;93254;1206;82810;-66
2021/07/16 03:10:01;;;;;;;12.80;9.70;;;;;;;21.99;80.77;100252.31;93262;1213;67409;-67
2021/07/16 03:12:11;;;;;;;15.00;10.10;;;;;;;22.01;80.66;100258.36;93261;1205;68094;-66
2021/07/16 03:14:19;;;;;;;13.20;10.10;;;;;;;22.00;80.61;100253.95;93249;1203;86231;-67
2021/07/16 03:16:27;;;;;;;12.90;9.70;;;;;;;21.94;80.72;100248.70;93235;1205;74858;-67
2021/07/16 03:18:34;;;;;;;12.50;10.00;;;;;;;21.92;80.62;100246.20;93246;1206;81927;-68
2021/07/16 03:20:46;;;;;;;13.20;9.60;;;;;;;21.98;80.62;100250.64;93270;1205;68145;-67
2021/07/16 03:22:55;;;;;;;12.30;9.30;;;;;;;21.94;80.50;100255.04;93269;1205;67439;-66
2021/07/16 03:25:03;;;;;;;12.20;9.70;;;;;;;21.97;80.70;100254.51;93256;1205;85507;-66
2021/07/16 03:27:11;;;;;;;13.00;9.60;;;;;;;21.93;80.70;100263.55;93250;1206;74261;-65
2021/07/16 03:29:18;;;;;;;12.90;10.20;;;;;;;21.86;80.95;100249.18;93228;1206;81120;-68
2021/07/16 03:31:26;;;;;;;14.80;10.70;;;;;;;21.75;80.94;100257.35;93260;1213;69732;-68
2021/07/16 03:33:37;;;;;;;9.90;8.40;;;;;;;21.66;81.14;100244.39;93251;1210;68295;-68
2021/07/16 03:35:47;;;;;;;13.00;8.80;;;;;;;21.60;81.06;100250.94;93253;1213;86988;-67
2021/07/16 03:37:56;;;;;;;8.90;7.80;;;;;;;21.56;81.11;100263.58;93269;1205;73872;-67
2021/07/16 03:40:05;;;;;;;11.90;7.50;;;;;;;21.54;80.86;100261.08;93264;1210;80100;-67
2021/07/16 03:42:13;;;;;;;9.80;7.00;;;;;;;21.48;80.72;100256.63;93271;1205;64999;-68
2021/07/16 03:44:23;;;;;;;10.70;7.40;;;;;;;21.42;80.77;100257.70;93277;1206;68823;-66
2021/07/16 03:46:31;;;;;;;8.50;7.50;;;;;;;21.38;80.73;100253.81;93244;1205;86987;-65
2021/07/16 03:48:39;;;;;;;10.90;7.80;;;;;;;21.34;81.03;100251.87;93268;1206;74429;-66
2021/07/16 03:50:47;;;;;;;11.40;7.70;;;;;;;21.33;80.96;100250.20;93259;1205;81110;-66
2021/07/16 03:52:55;;;;;;;11.10;8.00;;;;;;;21.33;81.08;100241.95;93232;1210;66418;-67
2021/07/16 03:55:05;;;;;;;13.40;8.00;;;;;;;21.31;81.12;100242.23;93254;1205;68777;-68
2021/07/16 03:57:13;;;;;;;9.70;7.40;;;;;;;21.31;81.02;100233.98;93232;1206;86295;-68
2021/07/16 03:59:21;;;;;;;8.90;7.50;;;;;;;21.30;81.12;100232.32;93257;1205;75551;-65
2021/07/16 04:01:28;;;;;;;12.00;8.20;;;;;;;21.29;81.70;100225.16;93236;1211;81717;-65
2021/07/16 04:03:39;;;;;;;11.30;7.50;;;;;;;21.28;81.09;100225.44;93141;1208;68485;-68
2021/07/16 04:05:47;;;;;;;10.10;8.40;;;;;;;21.32;81.17;100221.05;93245;1206;68020;-67
2021/07/16 04:08:04;;;;;;;9.90;8.40;;;;;;;21.30;81.46;100221.33;93251;1206;86562;-65
2021/07/16 04:10:18;;;;;;;12.90;8.70;;;;;;;21.28;81.87;100212.53;93260;1206;74980;-65
2021/07/16 04:12:29;;;;;;;11.70;9.10;;;;;;;21.22;82.18;100207.25;93269;1206;81944;-66
2021/07/16 04:14:39;;;;;;;11.40;8.00;;;;;;;21.23;81.98;100217.99;93270;1211;69354;-68
2021/07/16 04:16:46;;;;;;;10.20;8.70;;;;;;;21.24;82.10;100222.38;93281;1206;68456;-68
2021/07/16 04:18:54;;;;;;;36.50;26.90;;;;;;;21.24;82.01;100211.39;93157;1208;85944;-68
2021/07/16 04:21:01;;;;;;;29.30;26.20;;;;;;;21.28;82.42;100209.78;93311;1208;73991;-68
2021/07/16 04:23:09;;;;;;;16.60;13.80;;;;;;;21.36;82.30;100201.04;93275;1205;81269;-66
2021/07/16 04:25:18;;;;;;;10.30;8.90;;;;;;;21.39;82.94;100200.52;93248;1205;68546;-65
2021/07/16 04:27:26;;;;;;;12.60;9.50;;;;;;;21.29;83.14;100186.69;93297;1213;68369;-67
2021/07/16 04:29:34;;;;;;;15.50;8.20;;;;;;;21.41;83.10;100192.83;93126;1208;86845;-66
2021/07/16 04:31:42;;;;;;;13.80;9.40;;;;;;;21.44;83.18;100192.30;93250;1206;74254;-66
2021/07/16 04:33:50;;;;;;;11.40;8.00;;;;;;;21.52;83.35;100188.21;93250;1210;80828;-68
2021/07/16 04:35:57;;;;;;;11.40;8.10;;;;;;;21.61;83.17;100190.20;93234;1210;66726;-67
2021/07/16 04:38:05;;;;;;;11.60;7.90;;;;;;;21.72;82.87;100180.92;93144;1207;68919;-67
2021/07/16 04:40:19;;;;;;;12.80;8.80;;;;;;;21.88;82.98;100179.09;93235;1206;86641;-67
2021/07/16 04:42:27;;;;;;;13.00;9.20;;;;;;;21.98;82.99;100170.03;93296;1206;75869;-66
2021/07/16 04:44:38;;;;;;;15.40;10.30;;;;;;;22.05;82.55;100170.63;93244;1205;80617;-65
2021/07/16 04:46:45;;;;;;;12.00;9.70;;;;;;;22.11;82.34;100166.80;93251;1206;67035;-65
2021/07/16 04:48:55;;;;;;;12.40;9.20;;;;;;;22.19;82.12;100163.52;93248;1205;67927;-65
2021/07/16 04:51:03;;;;;;;13.90;9.80;;;;;;;22.22;82.15;100158.28;93271;1205;87171;-65
2021/07/16 04:53:10;;;;;;;13.60;9.30;;;;;;;22.30;81.82;100157.74;93140;1208;74023;-65
2021/07/16 04:55:22;;;;;;;13.80;9.90;;;;;;;22.50;81.90;100170.72;93245;1210;81961;-67
2021/07/16 04:57:33;;;;;;;11.90;10.20;;;;;;;22.67;81.37;100159.48;93242;1205;66384;-66
2021/07/16 04:59:43;;;;;;;13.00;9.80;;;;;;;22.88;81.32;100161.17;93280;1205;69216;-68
2021/07/16 05:01:52;;;;;;;16.60;9.90;;;;;;;23.50;81.40;100163.58;93140;1208;85351;-68
2021/07/16 05:04:00;;;;;;;12.90;8.50;;;;;;;23.92;79.78;100168.69;93204;1208;75628;-65
2021/07/16 05:06:08;;;;;;;14.00;9.50;;;;;;;23.94;79.11;100164.53;93236;1210;81979;-65
2021/07/16 05:08:16;;;;;;;15.20;9.70;;;;;;;24.34;79.04;100168.20;93267;1210;65466;-66
2021/07/16 05:10:26;;;;;;;13.30;9.20;;;;;;;24.67;77.44;100178.48;93222;1205;69560;-66
2021/07/16 05:12:35;;;;;;;11.20;9.00;;;;;;;24.44;76.14;100173.69;93305;1206;87235;-68
2021/07/16 05:14:43;;;;;;;13.40;9.30;;;;;;;24.35;76.15;100172.63;93300;1205;74659;-68
2021/07/16 05:16:50;;;;;;;14.00;8.20;;;;;;;24.28;76.57;100180.41;93187;1208;81293;-69
2021/07/16 05:18:58;;;;;;;12.50;8.50;;;;;;;24.67;75.76;100177.67;93241;1206;65059;-68
2021/07/16 05:21:07;;;;;;;12.30;9.30;;;;;;;24.72;75.43;100175.70;93265;1213;70070;-68
2021/07/16 05:23:15;;;;;;;15.30;9.30;;;;;;;24.69;75.44;100181.80;93251;1210;85839;-68
2021/07/16 05:25:23;;;;;;;10.10;9.00;;;;;;;24.62;74.99;100184.88;93280;1210;74383;-68
2021/07/16 05:27:31;;;;;;;13.60;8.80;;;;;;;24.61;74.63;100179.65;93281;1204;81719;-68
2021/07/16 05:29:38;;;;;;;14.60;8.70;;;;;;;24.60;74.62;100177.98;93230;1211;67592;-67
2021/07/16 05:31:46;;;;;;;15.30;9.40;;;;;;;24.53;75.13;100177.50;93285;1203;69551;-68
2021/07/16 05:33:54;;;;;;;11.60;9.00;;;;;;;24.70;75.24;100174.31;93233;1210;86326;-67
2021/07/16 05:36:06;;;;;;;10.50;8.20;;;;;;;24.88;74.15;100168.14;93235;1214;76499;-68
2021/07/16 05:38:14;;;;;;;14.30;10.60;;;;;;;24.78;73.74;100173.73;93259;1205;81149;-67
2021/07/16 05:40:25;;;;;;;12.30;10.20;;;;;;;24.60;73.52;100167.77;93230;1210;65401;-67
2021/07/16 05:42:33;;;;;;;14.00;9.20;;;;;;;24.25;73.55;100164.41;93299;1205;68786;-65
2021/07/16 05:44:41;;;;;;;12.30;9.10;;;;;;;24.15;73.84;100161.69;93267;1205;86635;-65
2021/07/16 05:46:48;;;;;;;14.40;11.30;;;;;;;24.56;73.98;100165.84;93274;1213;73955;-65
2021/07/16 05:48:59;;;;;;;15.50;9.90;;;;;;;24.81;73.56;100168.45;93226;1206;80664;-68
2021/07/16 05:51:08;;;;;;;16.50;10.20;;;;;;;24.88;73.44;100180.03;93262;1210;67776;-68
2021/07/16 05:53:17;;;;;;;15.50;10.60;;;;;;;25.71;74.18;100201.94;93270;1210;67801;-64
2021/07/16 05:55:25;;;;;;;14.10;9.60;;;;;;;26.75;72.97;100236.05;93258;1213;88258;-65
2021/07/16 05:57:33;;;;;;;14.20;10.00;;;;;;;28.35;71.85;100259.30;93268;1206;73938;-67
2021/07/16 05:59:40;;;;;;;12.80;9.60;;;;;;;28.79;69.26;100275.32;93255;1206;81043;-66
2021/07/16 06:01:48;;;;;;;13.50;9.10;;;;;;;28.31;68.45;100286.09;93208;1208;66289;-66
2021/07/16 06:03:58;;;;;;;13.90;9.30;;;;;;;27.70;68.09;100297.50;93279;1205;69601;-65
2021/07/16 06:06:06;;;;;;;14.30;9.10;;;;;;;27.04;68.35;100302.45;93263;1205;86338;-65
2021/07/16 06:08:14;;;;;;;12.00;9.70;;;;;;;26.49;68.56;100301.25;93252;1205;73945;-66
2021/07/16 06:10:21;;;;;;;11.90;8.90;;;;;;;25.95;68.78;100305.19;93250;1213;81665;-67
2021/07/16 06:12:29;;;;;;;11.40;7.70;;;;;;;25.56;69.16;100301.69;93257;1205;65455;-65
2021/07/16 06:14:37;;;;;;;12.60;8.80;;;;;;;25.28;69.63;100302.44;93252;1205;69586;-65
2021/07/16 06:16:44;;;;;;;12.20;8.30;;;;;;;25.07;69.82;100288.78;93258;1205;85962;-65
2021/07/16 06:18:52;;;;;;;12.40;8.30;;;;;;;24.94;70.40;100300.46;93259;1205;74027;-66
2021/07/16 06:21:00;;;;;;;11.90;8.50;;;;;;;24.77;70.71;100316.59;93230;1205;81914;-65
2021/07/16 06:23:07;;;;;;;9.60;7.60;;;;;;;24.69;70.56;100328.23;93224;1199;67521;-65
2021/07/16 06:25:18;;;;;;;11.70;8.50;;;;;;;24.54;71.14;100323.59;93244;1205;69362;-65
2021/07/16 06:27:26;;;;;;;13.30;8.60;;;;;;;24.46;71.04;100315.90;93265;1204;86544;-65
2021/07/16 06:29:34;;;;;;;9.70;8.20;;;;;;;24.39;71.39;100322.84;93273;1207;75643;-65
2021/07/16 06:31:41;;;;;;;13.40;8.90;;;;;;;24.28;71.43;100322.02;93267;1206;80699;-65
2021/07/16 06:33:49;;;;;;;12.30;8.10;;;;;;;24.16;71.76;100343.61;93261;1211;68572;-65
2021/07/16 06:35:56;;;;;;;12.40;7.50;;;;;;;23.98;71.70;100346.94;93278;1203;69437;-66
2021/07/16 06:38:04;;;;;;;12.50;7.50;;;;;;;23.89;72.20;100340.33;93273;1206;87462;-66
2021/07/16 06:40:15;;;;;;;11.20;8.00;;;;;;;23.79;72.57;100332.04;93277;1204;74865;-65
2021/07/16 06:42:23;;;;;;;11.00;8.10;;;;;;;23.74;72.29;100323.77;93308;1203;81991;-65
2021/07/16 06:44:31;;;;;;;12.90;8.50;;;;;;;23.72;72.77;100323.23;93281;1205;68538;-65
2021/07/16 06:46:38;;;;;;;13.20;7.60;;;;;;;23.63;72.75;100313.85;93276;1206;67901;-65
2021/07/16 06:48:47;;;;;;;11.80;8.30;;;;;;;23.58;72.77;100314.70;93214;1206;87930;-65
2021/07/16 06:50:54;;;;;;;14.20;8.00;;;;;;;23.52;73.03;100309.45;93237;1206;73948;-65
2021/07/16 06:53:02;;;;;;;15.10;8.20;;;;;;;23.46;73.13;100300.34;93261;1209;80897;-67
2021/07/16 06:55:13;;;;;;;13.20;8.10;;;;;;;23.38;73.16;100300.91;93272;1205;66881;-67
2021/07/16 06:57:21;;;;;;;10.30;7.60;;;;;;;23.27;73.43;100286.26;93252;1204;68852;-67
2021/07/16 06:59:32;;;;;;;10.30;7.90;;;;;;;23.20;73.94;100284.89;93274;1210;86215;-61
2021/07/16 07:01:39;;;;;;;10.30;8.00;;;;;;;23.08;74.20;100282.39;93250;1206;73972;-61
2021/07/16 07:03:47;;;;;;;10.00;7.90;;;;;;;23.00;74.38;100293.95;93247;1206;80797;-61
2021/07/16 07:05:55;;;;;;;12.10;8.10;;;;;;;22.93;74.70;100306.35;93270;1202;68541;-60
2021/07/16 07:08:03;;;;;;;10.90;7.30;;;;;;;22.86;74.87;100315.70;93288;1206;69007;-63
2021/07/16 07:10:13;;;;;;;13.30;7.80;;;;;;;22.72;75.00;100320.06;93199;1208;87068;-64
2021/07/16 07:12:21;;;;;;;12.10;8.40;;;;;;;22.66;75.33;100320.34;93319;1210;76239;-63
2021/07/16 07:14:32;;;;;;;11.70;7.30;;;;;;;22.51;75.67;100321.06;93266;1205;81313;-64
2021/07/16 07:16:40;;;;;;;12.60;8.10;;;;;;;22.45;75.74;100332.31;93268;1205;65438;-64
2021/07/16 07:18:48;;;;;;;11.70;8.30;;;;;;;22.34;75.94;100331.45;93239;1205;69649;-65
2021/07/16 07:20:56;;;;;;;15.60;7.80;;;;;;;22.28;76.04;100346.27;93271;1206;86773;-62
2021/07/16 07:23:05;;;;;;;13.20;7.90;;;;;;;22.26;76.06;100371.33;93253;1206;74478;-63
2021/07/16 07:25:14;;;;;;;21.50;10.10;;;;;;;22.22;76.77;100394.16;93287;1205;81005;-63
2021/07/16 07:27:24;;;;;;;12.20;8.80;;;;;;;22.14;76.86;100389.15;93274;1205;65854;-64
2021/07/16 07:29:35;;;;;;;11.70;8.50;;;;;;;22.03;77.17;100359.91;93261;1206;70107;-64
2021/07/16 07:31:42;;;;;;;11.70;8.00;;;;;;;21.86;77.75;100340.78;93133;1208;87009;-64
2021/07/16 07:33:50;;;;;;;12.70;8.20;;;;;;;21.70;78.75;100333.48;93322;1205;74246;-59
2021/07/16 07:36:01;;;;;;;13.20;7.10;;;;;;;21.45;79.14;100338.81;93229;1206;81842;-60
2021/07/16 07:38:09;;;;;;;11.50;7.50;;;;;;;21.24;79.98;100350.69;93282;1210;68097;-63
2021/07/16 07:40:19;;;;;;;12.60;8.00;;;;;;;21.18;79.66;100375.37;93285;1213;68719;-64
2021/07/16 07:42:31;;;;;;;14.20;7.90;;;;;;;21.26;79.53;100395.24;93255;1206;87640;-62
2021/07/16 07:44:39;;;;;;;14.80;9.20;;;;;;;21.30;80.50;100401.86;93243;1206;74940;-59
2021/07/16 07:46:47;;;;;;;16.70;9.10;;;;;;;21.31;79.64;100409.87;93281;1205;80804;-59
2021/07/16 07:48:57;;;;;;;14.80;8.90;;;;;;;21.35;79.77;100419.23;93259;1206;69566;-60
2021/07/16 07:51:08;;;;;;;13.00;8.60;;;;;;;21.33;80.74;100396.69;93292;1203;69642;-60
2021/07/16 07:53:16;;;;;;;9.40;7.50;;;;;;;21.21;81.85;100367.69;93273;1213;88205;-60
2021/07/16 07:55:25;;;;;;;10.10;7.60;;;;;;;21.12;81.35;100359.11;93264;1210;75532;-60
2021/07/16 07:57:33;;;;;;;12.00;7.80;;;;;;;21.07;80.83;100348.05;93273;1205;81381;-60
2021/07/16 07:59:43;;;;;;;15.20;7.90;;;;;;;21.05;81.27;100336.47;93222;1205;66972;-60
2021/07/16 08:01:54;;;;;;;18.70;8.20;;;;;;;21.04;81.26;100321.89;93253;1210;67735;-60
2021/07/16 08:04:03;;;;;;;10.10;7.80;;;;;;;20.99;81.39;100315.52;93240;1206;86315;-60
2021/07/16 08:06:10;;;;;;;10.30;8.40;;;;;;;21.04;81.14;100302.66;93274;1205;77277;-60
2021/07/16 08:08:21;;;;;;;10.70;8.40;;;;;;;21.08;81.22;100301.10;93262;1210;80637;-61
2021/07/16 08:10:32;;;;;;;14.90;9.00;;;;;;;21.09;81.27;100307.43;93262;1205;68679;-60
2021/07/16 08:12:40;;;;;;;12.90;9.00;;;;;;;21.11;81.77;100317.06;93266;1211;69244;-63
2021/07/16 08:14:48;;;;;;;12.30;8.60;;;;;;;21.11;81.11;100332.72;93235;1206;86762;-63
2021/07/16 08:16:59;;;;;;;11.20;8.00;;;;;;;21.16;81.13;100343.75;93251;1204;75321;-63
2021/07/16 08:19:06;;;;;;;12.50;8.60;;;;;;;21.19;81.17;100351.48;93260;1210;81339;-63
2021/07/16 08:21:14;;;;;;;12.60;8.50;;;;;;;21.25;81.03;100349.61;93233;1206;65857;-63
2021/07/16 08:23:22;;;;;;;11.60;8.00;;;;;;;21.24;81.02;100365.26;93222;1208;69388;-64
2021/07/16 08:25:35;;;;;;;10.60;7.80;;;;;;;21.26;80.97;100367.77;93268;1203;87989;-63
2021/07/16 08:27:44;;;;;;;10.00;8.20;;;;;;;21.22;81.13;100359.20;93253;1203;75458;-64
2021/07/16 08:29:51;;;;;;;13.00;8.40;;;;;;;21.21;81.25;100359.45;93256;1206;82000;-63
2021/07/16 08:32:00;;;;;;;9.50;7.50;;;;;;;21.12;82.03;100364.61;93274;1210;67115;-64
2021/07/16 08:34:11;;;;;;;8.60;6.50;;;;;;;21.03;81.99;100346.89;93240;1206;68587;-59
2021/07/16 08:36:19;;;;;;;10.80;7.20;;;;;;;20.92;82.42;100328.64;93262;1206;85608;-59
2021/07/16 08:38:27;;;;;;;11.60;7.20;;;;;;;20.96;81.96;100319.62;93249;1206;74791;-60
2021/07/16 08:40:37;;;;;;;8.90;6.50;;;;;;;21.02;81.83;100315.84;93242;1213;80325;-59
2021/07/16 08:42:47;;;;;;;9.00;6.30;;;;;;;21.05;81.82;100300.75;93234;1206;68193;-60
2021/07/16 08:44:55;;;;;;;9.20;7.10;;;;;;;21.07;81.95;100265.63;93269;1210;68548;-60
2021/07/16 08:47:06;;;;;;;10.20;6.00;;;;;;;21.05;82.00;100201.86;93152;1208;86031;-60
2021/07/16 08:49:16;;;;;;;8.60;5.60;;;;;;;21.05;81.94;100144.18;93299;1205;75407;-62
2021/07/16 08:51:24;;;;;;;6.90;4.60;;;;;;;21.04;81.97;100107.64;93258;1210;80028;-63
2021/07/16 08:53:33;;;;;;;6.30;4.50;;;;;;;21.06;82.24;100126.62;93213;1210;67028;-60
2021/07/16 08:55:43;;;;;;;6.80;3.90;;;;;;;21.10;82.06;100188.20;93253;1206;68104;-59
2021/07/16 08:57:54;;;;;;;4.80;3.30;;;;;;;21.21;82.31;100286.09;93210;1206;87444;-63
2021/07/16 09:00:02;;;;;;;5.20;3.90;;;;;;;21.25;82.55;100336.70;93291;1206;74689;-63
2021/07/16 09:02:13;;;;;;;6.00;3.70;;;;;;;21.32;81.81;100361.20;93257;1206;82625;-63
2021/07/16 09:04:27;;;;;;;4.40;3.40;;;;;;;21.33;81.58;100341.72;93235;1206;68044;-60
2021/07/16 09:06:50;;;;;;;3.90;2.50;;;;;;;21.30;81.42;100319.42;93268;1206;69050;-60
2021/07/16 09:09:06;;;;;;;3.60;2.80;;;;;;;21.37;81.49;100315.36;93243;1206;87265;-66
2021/07/16 09:11:20;;;;;;;5.50;2.60;;;;;;;21.43;81.18;100325.31;93275;1205;75324;-67
2021/07/16 09:13:30;;;;;;;5.40;3.10;;;;;;;21.55;81.32;100341.63;93250;1206;80688;-61
2021/07/16 09:15:39;;;;;;;4.70;3.30;;;;;;;21.74;81.48;100346.47;93294;1206;65264;-61
2021/07/16 09:17:47;;;;;;;3.80;3.00;;;;;;;21.89;81.02;100350.45;93262;1205;67782;-61
2021/07/16 09:19:55;;;;;;;5.70;4.00;;;;;;;22.05;80.77;100363.22;93293;1199;86394;-60
2021/07/16 09:22:14;;;;;;;5.40;3.40;;;;;;;22.23;80.67;100363.59;93271;1213;75090;-61
2021/07/16 09:24:27;;;;;;;4.00;3.40;;;;;;;22.52;80.92;100369.55;93133;1208;81496;-68
2021/07/16 09:26:38;;;;;;;6.20;4.10;;;;;;;22.71;80.55;100353.40;93276;1198;67667;-66
2021/07/16 09:28:50;;;;;;;3.70;3.00;;;;;;;22.90;80.20;100355.39;93246;1205;69647;-66
2021/07/16 09:31:17;;;;;;;6.10;3.50;;;;;;;23.14;79.70;100357.64;93139;1208;86741;-66
2021/07/16 09:33:28;;;;;;;7.50;4.00;;;;;;;23.36;79.96;100360.98;93226;1206;74841;-67
2021/07/16 09:35:38;;;;;;;5.60;3.80;;;;;;;23.62;80.04;100354.42;93238;1205;81441;-68
2021/07/16 09:37:56;;;;;;;6.40;3.90;;;;;;;23.85;80.10;100348.33;93315;1203;68077;-68
2021/07/16 09:40:04;;;;;;;5.40;3.60;;;;;;;24.14;79.97;100356.05;93263;1206;68312;-68
2021/07/16 09:42:13;;;;;;;4.00;3.20;;;;;;;24.37;79.20;100360.94;93278;1206;87707;-68
2021/07/16 09:44:33;;;;;;;5.00;3.60;;;;;;;24.61;78.92;100368.30;93269;1206;74449;-71
2021/07/16 09:47:05;;;;;;;5.70;3.10;;;;;;;24.71;78.27;100358.33;93284;1207;82026;-73
2021/07/16 09:49:17;;;;;;;6.70;3.20;;;;;;;24.63;77.64;100356.98;93254;1205;65803;-67
2021/07/16 09:51:28;;;;;;;5.30;3.10;;;;;;;24.59;77.02;100353.13;93299;1206;70030;-64
2021/07/16 09:53:43;;;;;;;3.90;3.30;;;;;;;24.69;77.17;100355.86;93227;1205;85734;-71